Pleiades — WDG9301 — position and weather

sailwx.info

Track history (hours):
 
Tides and Currents Weather Stations Pressure Air Temp Water Temp Dewpoint Dewpoint Depression Visibility Wind Speed Wind Dir Waves Ship Positions

Pleiades

Owner: Ashmore, Michael L, Alameda, CA. More information available from US FCC via Universal Licensing System and Coast Guard Vessel Documentation Center.

Last reported at 2017-Oct-09 01:13 UTC. Time now 2017-Oct-19 03:44 UTC.
Position N 37°47' W 122°15'.
Warning: this ship's position is 10 days out of date.

Length 12 m.

Type: Sailing vessel. MMSI: 367586420.

Date/timePositionNaut miles runAvg speedWind from/ knotsBaromVisibWave heightAir tempDewpointWater temp
2017-Oct-09 01:13N 37°47' W 122°15'0 0.0
2017-Oct-09 00:58N 37°47' W 122°15'0 0.3
2017-Oct-09 00:30N 37°47' W 122°15'3 5.5
2017-Oct-09 00:00N 37°48' W 122°19'3 5.4
2017-Oct-08 23:30N 37°48' W 122°22'2 4.1
2017-Oct-08 23:00N 37°49' W 122°24'1 0.2
2017-Oct-08 18:06N 37°49' W 122°25'0 0.0
2017-Oct-08 18:00N 37°49' W 122°25'0 0.1
2017-Oct-08 17:30N 37°49' W 122°25'2 3.4
2017-Oct-08 17:00N 37°50' W 122°26'4 0.1
2017-Oct-07 04:29N 37°54' W 122°27'2 4.5
2017-Oct-07 04:00N 37°53' W 122°25'3 5.5
2017-Oct-07 03:30N 37°51' W 122°23'3 5.9
2017-Oct-07 03:00N 37°48' W 122°21'3 6.1
2017-Oct-07 02:30N 37°48' W 122°17'2 2.4
2017-Oct-07 01:53N 37°47' W 122°15'0 0.0
2017-Oct-07 01:28N 37°47' W 122°15'0 0.0
2017-Oct-07 00:58N 37°47' W 122°15'  
Track history (hours):
 
Tides and Currents Weather Stations Pressure Air Temp Water Temp Dewpoint Dewpoint Depression Visibility Wind Speed Wind Dir Waves Ship Positions

Pleiades

Owner: Ashmore, Michael L, Alameda, CA. More information available from US FCC via Universal Licensing System and Coast Guard Vessel Documentation Center.

Last reported at 2017-Oct-09 01:13 UTC. Time now 2017-Oct-19 03:44 UTC.
Position N 37°47' W 122°15'.
Warning: this ship's position is 10 days out of date.

Length 12 m.

Type: Sailing vessel. MMSI: 367586420.

Date/timePositionNaut miles runAvg speedWind from/ knotsBaromVisibWave heightAir tempDewpointWater temp
2017-Oct-09 01:13N 37°47' W 122°15'0 0.0
2017-Oct-09 00:58N 37°47' W 122°15'0 0.3
2017-Oct-09 00:30N 37°47' W 122°15'3 5.5
2017-Oct-09 00:00N 37°48' W 122°19'3 5.4
2017-Oct-08 23:30N 37°48' W 122°22'2 4.1
2017-Oct-08 23:00N 37°49' W 122°24'1 0.2
2017-Oct-08 18:06N 37°49' W 122°25'0 0.0
2017-Oct-08 18:00N 37°49' W 122°25'0 0.1
2017-Oct-08 17:30N 37°49' W 122°25'2 3.4
2017-Oct-08 17:00N 37°50' W 122°26'4 0.1
2017-Oct-07 04:29N 37°54' W 122°27'2 4.5
2017-Oct-07 04:00N 37°53' W 122°25'3 5.5
2017-Oct-07 03:30N 37°51' W 122°23'3 5.9
2017-Oct-07 03:00N 37°48' W 122°21'3 6.1
2017-Oct-07 02:30N 37°48' W 122°17'2 2.4
2017-Oct-07 01:53N 37°47' W 122°15'0 0.0
2017-Oct-07 01:28N 37°47' W 122°15'0 0.0
2017-Oct-07 00:58N 37°47' W 122°15'  

Dump ship's entire track history